Time;durP1;ratioP1;P1;durP2;ratioP2;P2;SDS_P1;SDS_P2;PMS_P1;PMS_P2;Temp;Humidity;BMP_temperature;BMP_pressure;BME280_temperature;BME280_humidity;BME280_pressure;Samples;Min_cycle;Max_cycle;Signal;HPM_P1;HPM_P2
2023/11/13 00:01:13;;;;;;;16.63;6.60;;;;;;;;;;4997902;28;20054;-63
2023/11/13 00:03:42;;;;;;;9.32;4.70;;;;;;;;;;4977434;28;20078;-63
2023/11/13 00:06:08;;;;;;;11.80;4.45;;;;;;;;;;4982960;28;20086;-64
2023/11/13 00:08:48;;;;;;;11.85;4.55;;;;;;;;;;4973951;28;20082;-64
2023/11/13 00:11:16;;;;;;;9.63;4.07;;;;;;;;;;4977178;28;20054;-63
2023/11/13 00:13:44;;;;;;;11.20;5.25;;;;;;;;;;4974511;28;20063;-63
2023/11/13 00:16:10;;;;;;;15.27;5.22;;;;;;;;;;4967188;28;20138;-63
2023/11/13 00:18:39;;;;;;;9.13;3.97;;;;;;;;;;4960292;28;20058;-63
2023/11/13 00:21:06;;;;;;;;;;;;;;;;;;4961620;28;21037;-63
2023/11/13 00:23:32;;;;;;;9.73;3.58;;;;;;;;;;4964266;28;19922;-63
2023/11/13 00:25:59;;;;;;;11.52;4.30;;;;;;;;;;4967308;28;20117;-62
2023/11/13 00:28:27;;;;;;;8.50;3.90;;;;;;;;;;4958849;28;20078;-62
2023/11/13 00:30:54;;;;;;;8.00;3.72;;;;;;;;;;4959076;28;20291;-62
2023/11/13 00:33:20;;;;;;;9.63;4.32;;;;;;;;;;4964450;28;20054;-61
2023/11/13 00:35:47;;;;;;;9.55;4.13;;;;;;;;;;4961847;28;20051;-62
2023/11/13 00:38:14;;;;;;;9.95;4.00;;;;;;;;;;4959825;28;20048;-62
2023/11/13 00:40:40;;;;;;;11.10;4.45;;;;;;;;;;4966795;28;20051;-62
2023/11/13 00:43:07;;;;;;;9.15;3.70;;;;;;;;;;4962163;28;20055;-62
2023/11/13 00:45:36;;;;;;;9.48;4.50;;;;;;;;;;4963382;28;20130;-61
2023/11/13 00:48:02;;;;;;;10.80;4.22;;;;;;;;;;4960419;28;20165;-62
2023/11/13 00:50:29;;;;;;;9.23;4.30;;;;;;;;;;4964956;28;20149;-60
2023/11/13 00:52:56;;;;;;;7.90;3.85;;;;;;;;;;4960579;28;20050;-60
2023/11/13 00:55:22;;;;;;;10.93;4.10;;;;;;;;;;4963732;28;20059;-61
2023/11/13 00:57:49;;;;;;;11.45;4.28;;;;;;;;;;4959997;28;20050;-61
2023/11/13 01:00:16;;;;;;;8.93;3.85;;;;;;;;;;4972099;28;20064;-61
2023/11/13 01:02:44;;;;;;;8.27;4.10;;;;;;;;;;4991035;28;20044;-62
2023/11/13 01:05:11;;;;;;;10.18;4.10;;;;;;;;;;4990793;28;20070;-62
2023/11/13 01:07:38;;;;;;;12.07;4.03;;;;;;;;;;5011706;28;20166;-61
2023/11/13 01:10:06;;;;;;;11.57;4.30;;;;;;;;;;4982779;28;20046;-62
2023/11/13 01:12:33;;;;;;;9.70;4.27;;;;;;;;;;4984343;28;20046;-61
2023/11/13 01:15:01;;;;;;;7.85;3.75;;;;;;;;;;4978781;28;20062;-61
2023/11/13 01:17:29;;;;;;;9.30;4.10;;;;;;;;;;4979303;28;20058;-61
2023/11/13 01:19:57;;;;;;;9.45;3.92;;;;;;;;;;4982897;28;20105;-61
2023/11/13 01:22:24;;;;;;;9.93;4.10;;;;;;;;;;4983044;28;20050;-61
2023/11/13 01:24:51;;;;;;;11.75;4.38;;;;;;;;;;4975736;28;20077;-62
2023/11/13 01:27:18;;;;;;;9.88;3.83;;;;;;;;;;5011923;28;20064;-61
2023/11/13 01:29:44;;;;;;;11.68;3.85;;;;;;;;;;4982362;28;20086;-62
2023/11/13 01:32:12;;;;;;;7.40;3.42;;;;;;;;;;5015270;28;20054;-62
2023/11/13 01:34:38;;;;;;;10.55;3.90;;;;;;;;;;4979750;28;20058;-63
2023/11/13 01:37:06;;;;;;;9.63;4.30;;;;;;;;;;4965422;28;20054;-61
2023/11/13 01:39:33;;;;;;;6.95;3.30;;;;;;;;;;5015582;28;20058;-61
2023/11/13 01:42:00;;;;;;;8.32;3.85;;;;;;;;;;5014876;28;20058;-61
2023/11/13 01:44:27;;;;;;;9.48;3.42;;;;;;;;;;4981984;28;20050;-62
2023/11/13 01:46:54;;;;;;;10.63;4.15;;;;;;;;;;4974125;28;20204;-62
2023/11/13 01:49:21;;;;;;;10.15;3.47;;;;;;;;;;4982562;28;20113;-61
2023/11/13 01:51:49;;;;;;;10.10;3.72;;;;;;;;;;4983015;28;20153;-61
2023/11/13 01:54:19;;;;;;;10.13;3.63;;;;;;;;;;4984479;28;20138;-62
2023/11/13 01:56:47;;;;;;;13.02;4.47;;;;;;;;;;4974528;28;20067;-62
2023/11/13 01:59:14;;;;;;;7.90;3.70;;;;;;;;;;4985968;28;20042;-62
2023/11/13 02:01:41;;;;;;;9.45;3.92;;;;;;;;;;4981894;28;20054;-62
2023/11/13 02:04:08;;;;;;;8.95;3.58;;;;;;;;;;4982495;28;20046;-62
2023/11/13 02:06:35;;;;;;;8.60;4.03;;;;;;;;;;4974567;28;20111;-62
2023/11/13 02:09:02;;;;;;;8.00;3.60;;;;;;;;;;4988647;28;20062;-62
2023/11/13 02:11:30;;;;;;;8.77;3.63;;;;;;;;;;4982282;28;20160;-61
2023/11/13 02:13:57;;;;;;;10.40;4.30;;;;;;;;;;4982418;28;20109;-62
2023/11/13 02:16:24;;;;;;;8.88;3.45;;;;;;;;;;4980053;28;20054;-62
2023/11/13 02:18:51;;;;;;;8.70;3.97;;;;;;;;;;4975318;28;20046;-62
2023/11/13 02:21:18;;;;;;;7.55;3.25;;;;;;;;;;4981781;28;20058;-61
2023/11/13 02:23:46;;;;;;;9.35;3.80;;;;;;;;;;4982639;28;20054;-61
2023/11/13 02:26:15;;;;;;;6.20;2.78;;;;;;;;;;4972825;28;20078;-62
2023/11/13 02:28:42;;;;;;;11.23;3.42;;;;;;;;;;4965484;28;20054;-61
2023/11/13 02:31:09;;;;;;;7.28;3.15;;;;;;;;;;4981298;28;20050;-61
2023/11/13 02:33:35;;;;;;;7.43;3.22;;;;;;;;;;4981687;28;20058;-62
2023/11/13 02:36:02;;;;;;;8.60;3.63;;;;;;;;;;4984322;28;20062;-62
2023/11/13 02:38:29;;;;;;;6.68;3.08;;;;;;;;;;4977566;28;20077;-61
2023/11/13 02:40:58;;;;;;;13.38;5.43;;;;;;;;;;4977394;28;20116;-61
2023/11/13 02:43:25;;;;;;;30.73;11.77;;;;;;;;;;5014275;28;20046;-61
2023/11/13 02:45:52;;;;;;;10.27;4.40;;;;;;;;;;4981473;28;20101;-61
2023/11/13 02:48:19;;;;;;;9.27;4.07;;;;;;;;;;4976445;28;20085;-61
2023/11/13 02:50:46;;;;;;;8.77;3.55;;;;;;;;;;4972417;28;20090;-62
2023/11/13 02:53:13;;;;;;;8.10;3.90;;;;;;;;;;4982938;28;20054;-63
2023/11/13 02:55:39;;;;;;;9.73;3.88;;;;;;;;;;5001680;28;20058;-62
2023/11/13 02:58:07;;;;;;;6.88;3.33;;;;;;;;;;4984987;28;20059;-63
2023/11/13 03:00:34;;;;;;;9.98;3.85;;;;;;;;;;4977806;28;20055;-63
2023/11/13 03:03:01;;;;;;;9.88;3.70;;;;;;;;;;4967896;28;20086;-63
2023/11/13 03:05:29;;;;;;;7.93;3.33;;;;;;;;;;5009282;28;20050;-61
2023/11/13 03:07:57;;;;;;;8.30;3.42;;;;;;;;;;4957426;28;20070;-61
2023/11/13 03:10:24;;;;;;;8.70;3.30;;;;;;;;;;4962950;28;20059;-61
2023/11/13 03:12:51;;;;;;;9.05;3.65;;;;;;;;;;4958274;28;20058;-61
2023/11/13 03:15:19;;;;;;;10.85;3.35;;;;;;;;;;4994267;28;20050;-61
2023/11/13 03:17:46;;;;;;;9.93;3.80;;;;;;;;;;4960368;28;20117;-61
2023/11/13 03:20:13;;;;;;;11.07;4.03;;;;;;;;;;4994227;28;20177;-61
2023/11/13 03:22:39;;;;;;;12.50;3.75;;;;;;;;;;4956680;28;20055;-61
2023/11/13 03:25:08;;;;;;;6.97;3.25;;;;;;;;;;4993955;28;20051;-62
2023/11/13 03:27:37;;;;;;;7.95;3.83;;;;;;;;;;4960912;28;20062;-62
2023/11/13 03:30:04;;;;;;;8.13;3.15;;;;;;;;;;4961960;28;20073;-62
2023/11/13 03:32:32;;;;;;;7.95;3.10;;;;;;;;;;4989656;28;20055;-62
2023/11/13 03:34:58;;;;;;;8.77;3.28;;;;;;;;;;4993818;28;20097;-61
2023/11/13 03:37:25;;;;;;;10.13;4.10;;;;;;;;;;4993838;28;20053;-61
2023/11/13 03:39:52;;;;;;;9.90;3.60;;;;;;;;;;4956954;28;20113;-61
2023/11/13 03:42:19;;;;;;;10.23;3.35;;;;;;;;;;4959060;28;20110;-62
2023/11/13 03:44:46;;;;;;;10.65;4.22;;;;;;;;;;4974389;28;20061;-61
2023/11/13 03:47:13;;;;;;;6.85;3.33;;;;;;;;;;4981142;28;20161;-61
2023/11/13 03:49:41;;;;;;;7.28;3.00;;;;;;;;;;4979726;28;20069;-61
2023/11/13 03:52:13;;;;;;;6.55;3.13;;;;;;;;;;4979799;28;20189;-61
2023/11/13 03:54:39;;;;;;;8.43;3.15;;;;;;;;;;4984996;28;20046;-61
2023/11/13 03:57:06;;;;;;;8.13;3.65;;;;;;;;;;4983481;28;20054;-61
2023/11/13 03:59:33;;;;;;;7.50;3.25;;;;;;;;;;5015063;28;20062;-61
2023/11/13 04:02:00;;;;;;;6.57;3.35;;;;;;;;;;4952330;28;21958;-61
2023/11/13 04:04:27;;;;;;;8.98;3.70;;;;;;;;;;4979439;28;20101;-61
2023/11/13 04:06:55;;;;;;;8.27;3.97;;;;;;;;;;4984270;28;20090;-60
2023/11/13 04:09:22;;;;;;;11.43;3.38;;;;;;;;;;4978367;28;20168;-61
2023/11/13 04:11:49;;;;;;;7.45;2.88;;;;;;;;;;4952805;28;20310;-61
2023/11/13 04:14:16;;;;;;;9.40;3.13;;;;;;;;;;4998132;28;20154;-61
2023/11/13 04:16:43;;;;;;;12.88;3.30;;;;;;;;;;4965881;28;20058;-61
2023/11/13 04:19:10;;;;;;;7.03;3.25;;;;;;;;;;4999504;28;20597;-61
2023/11/13 04:21:36;;;;;;;7.30;3.35;;;;;;;;;;4955289;28;20142;-62
2023/11/13 04:24:05;;;;;;;10.30;4.30;;;;;;;;;;4964255;28;20055;-61
2023/11/13 04:26:32;;;;;;;8.90;3.58;;;;;;;;;;4981616;28;20066;-61
2023/11/13 04:28:59;;;;;;;9.70;3.28;;;;;;;;;;4985535;28;20054;-61
2023/11/13 04:31:26;;;;;;;9.63;3.42;;;;;;;;;;4981678;28;20118;-61
2023/11/13 04:33:53;;;;;;;8.70;3.42;;;;;;;;;;4982445;28;20086;-61
2023/11/13 04:36:20;;;;;;;10.38;3.38;;;;;;;;;;4981645;28;20054;-62
2023/11/13 04:38:47;;;;;;;7.15;3.22;;;;;;;;;;4982897;28;20054;-61
2023/11/13 04:41:16;;;;;;;6.97;3.15;;;;;;;;;;4979153;28;20050;-61
2023/11/13 04:43:43;;;;;;;8.35;3.22;;;;;;;;;;4976563;28;20066;-61
2023/11/13 04:46:11;;;;;;;10.30;3.25;;;;;;;;;;4983075;28;20505;-61
2023/11/13 04:48:38;;;;;;;8.60;3.80;;;;;;;;;;4983751;28;20154;-61
2023/11/13 04:51:05;;;;;;;8.25;3.33;;;;;;;;;;4979635;28;20053;-61
2023/11/13 04:53:32;;;;;;;7.75;3.42;;;;;;;;;;4981080;28;20058;-61
2023/11/13 04:55:59;;;;;;;7.65;3.33;;;;;;;;;;4982563;28;20054;-61
2023/11/13 04:58:27;;;;;;;6.18;2.88;;;;;;;;;;4984122;28;20054;-61
2023/11/13 05:00:54;;;;;;;10.93;4.20;;;;;;;;;;4967682;28;20104;-62
2023/11/13 05:03:21;;;;;;;8.65;3.88;;;;;;;;;;4992785;28;20125;-62
2023/11/13 05:05:47;;;;;;;7.68;3.28;;;;;;;;;;4978294;28;20104;-61
2023/11/13 05:08:15;;;;;;;9.55;3.78;;;;;;;;;;4985087;28;20062;-61
2023/11/13 05:10:42;;;;;;;12.63;3.33;;;;;;;;;;4982782;28;20065;-64
2023/11/13 05:13:09;;;;;;;6.25;2.95;;;;;;;;;;4979721;28;20313;-63
2023/11/13 05:15:37;;;;;;;9.48;3.95;;;;;;;;;;4980598;28;20098;-61
2023/11/13 05:18:07;;;;;;;9.90;3.30;;;;;;;;;;4982072;28;20088;-61
2023/11/13 05:20:34;;;;;;;11.77;4.32;;;;;;;;;;4983781;28;20149;-61
2023/11/13 05:23:00;;;;;;;9.30;3.90;;;;;;;;;;4978462;28;20070;-61
2023/11/13 05:25:30;;;;;;;7.53;3.53;;;;;;;;;;4982489;28;20153;-62
2023/11/13 05:27:57;;;;;;;9.35;3.92;;;;;;;;;;4978260;28;20054;-62
2023/11/13 05:30:24;;;;;;;7.78;3.53;;;;;;;;;;4982813;28;20050;-62
2023/11/13 05:32:52;;;;;;;8.43;3.35;;;;;;;;;;4967106;28;20085;-62
2023/11/13 05:35:20;;;;;;;12.60;4.20;;;;;;;;;;4983473;28;20084;-61
2023/11/13 05:37:46;;;;;;;9.23;4.35;;;;;;;;;;4976686;28;20403;-62
2023/11/13 05:40:16;;;;;;;8.90;4.15;;;;;;;;;;4983071;28;20070;-61
2023/11/13 05:42:42;;;;;;;10.75;4.47;;;;;;;;;;4969941;28;20065;-62
2023/11/13 05:45:10;;;;;;;11.85;5.50;;;;;;;;;;4983383;28;20081;-62
2023/11/13 05:47:37;;;;;;;14.23;4.40;;;;;;;;;;4978562;28;20155;-62
2023/11/13 05:50:08;;;;;;;9.75;3.97;;;;;;;;;;4990987;28;20062;-61
2023/11/13 05:52:34;;;;;;;12.80;4.57;;;;;;;;;;4985407;28;20046;-61
2023/11/13 05:55:01;;;;;;;8.65;3.63;;;;;;;;;;5002481;28;20124;-61
2023/11/13 05:57:28;;;;;;;12.20;3.88;;;;;;;;;;5002209;28;20129;-62
2023/11/13 05:59:55;;;;;;;11.57;3.92;;;;;;;;;;4997825;28;20053;-61
2023/11/13 06:02:22;;;;;;;12.15;4.45;;;;;;;;;;4996141;28;20038;-61
2023/11/13 06:04:49;;;;;;;8.75;4.43;;;;;;;;;;5035174;28;20064;-61
2023/11/13 06:07:17;;;;;;;10.40;4.18;;;;;;;;;;5000304;28;20050;-62
2023/11/13 06:09:44;;;;;;;9.65;4.22;;;;;;;;;;4992576;28;20045;-62
2023/11/13 06:12:11;;;;;;;7.90;3.75;;;;;;;;;;4994212;28;20107;-61
2023/11/13 06:14:38;;;;;;;9.07;4.10;;;;;;;;;;5002269;28;20056;-62
2023/11/13 06:17:08;;;;;;;12.15;5.03;;;;;;;;;;5003305;28;20054;-63
2023/11/13 06:19:35;;;;;;;10.45;4.30;;;;;;;;;;4998490;28;20096;-63
2023/11/13 06:22:01;;;;;;;10.55;4.60;;;;;;;;;;4995901;28;20057;-62
2023/11/13 06:24:29;;;;;;;9.98;4.78;;;;;;;;;;5001952;28;20149;-63
2023/11/13 06:26:58;;;;;;;9.02;3.72;;;;;;;;;;5004870;28;20076;-63
2023/11/13 06:29:25;;;;;;;12.60;4.47;;;;;;;;;;5002852;28;20114;-63
2023/11/13 06:31:53;;;;;;;11.90;3.83;;;;;;;;;;4990837;28;20137;-63
2023/11/13 06:34:20;;;;;;;11.63;4.47;;;;;;;;;;4997882;28;20137;-62
2023/11/13 06:36:46;;;;;;;8.77;3.92;;;;;;;;;;5003110;28;20057;-63
2023/11/13 06:39:14;;;;;;;13.93;4.53;;;;;;;;;;5000495;28;20085;-63
2023/11/13 06:41:43;;;;;;;9.60;3.85;;;;;;;;;;4979367;28;20054;-64
2023/11/13 06:44:10;;;;;;;13.15;5.10;;;;;;;;;;4998613;28;20092;-63
2023/11/13 06:46:37;;;;;;;11.70;5.13;;;;;;;;;;5002640;28;20057;-63
2023/11/13 06:49:04;;;;;;;11.68;4.78;;;;;;;;;;4999903;28;20140;-63
2023/11/13 06:51:31;;;;;;;15.15;5.05;;;;;;;;;;4993817;28;20128;-63
2023/11/13 06:53:58;;;;;;;8.35;3.97;;;;;;;;;;5033059;28;20080;-63
2023/11/13 06:56:25;;;;;;;11.30;4.60;;;;;;;;;;5002925;28;20049;-63
2023/11/13 06:58:53;;;;;;;12.63;5.25;;;;;;;;;;4990875;28;20073;-63
2023/11/13 07:01:21;;;;;;;9.82;4.38;;;;;;;;;;4954040;28;20124;-64
2023/11/13 07:03:51;;;;;;;15.73;4.38;;;;;;;;;;5011739;28;20050;-63
2023/11/13 07:06:18;;;;;;;11.38;5.07;;;;;;;;;;4982604;28;20069;-63
2023/11/13 07:08:45;;;;;;;10.25;4.50;;;;;;;;;;4985411;28;20069;-63
2023/11/13 07:11:14;;;;;;;11.27;4.47;;;;;;;;;;4976094;28;20063;-63
2023/11/13 07:13:41;;;;;;;9.77;3.83;;;;;;;;;;4997307;28;20056;-64
2023/11/13 07:16:10;;;;;;;9.68;4.22;;;;;;;;;;5003629;28;20077;-63
2023/11/13 07:18:37;;;;;;;11.88;4.45;;;;;;;;;;5006059;28;20042;-63
2023/11/13 07:21:04;;;;;;;11.40;4.30;;;;;;;;;;4982277;28;20050;-63
2023/11/13 07:23:33;;;;;;;9.32;4.25;;;;;;;;;;5001936;28;20057;-63
2023/11/13 07:25:59;;;;;;;8.88;4.10;;;;;;;;;;5001331;28;20068;-62
2023/11/13 07:28:26;;;;;;;10.23;4.22;;;;;;;;;;5007738;28;20092;-63
2023/11/13 07:30:54;;;;;;;10.40;4.10;;;;;;;;;;4998651;28;20060;-64
2023/11/13 07:33:23;;;;;;;9.90;4.32;;;;;;;;;;5000449;28;20053;-64
2023/11/13 07:35:49;;;;;;;10.45;3.83;;;;;;;;;;5002826;28;20042;-65
2023/11/13 07:38:16;;;;;;;9.75;3.95;;;;;;;;;;5008644;28;20085;-64
2023/11/13 07:40:43;;;;;;;10.95;4.07;;;;;;;;;;4985290;28;20050;-64
2023/11/13 07:43:10;;;;;;;8.23;3.50;;;;;;;;;;4971026;28;20100;-63
2023/11/13 07:45:38;;;;;;;12.00;3.38;;;;;;;;;;4962765;28;20082;-64
2023/11/13 07:48:05;;;;;;;7.30;3.42;;;;;;;;;;4970272;28;20110;-64
2023/11/13 07:50:34;;;;;;;8.82;3.78;;;;;;;;;;4970705;28;20062;-63
2023/11/13 07:53:01;;;;;;;8.07;3.72;;;;;;;;;;4974471;28;20153;-64
2023/11/13 07:55:28;;;;;;;6.97;3.53;;;;;;;;;;4985356;28;20166;-64
2023/11/13 07:57:56;;;;;;;10.00;3.85;;;;;;;;;;4985163;28;20057;-64
2023/11/13 08:00:24;;;;;;;9.65;3.47;;;;;;;;;;4990644;28;20050;-64
2023/11/13 08:02:51;;;;;;;11.65;4.28;;;;;;;;;;4982054;28;20054;-65
2023/11/13 08:05:21;;;;;;;10.60;3.70;;;;;;;;;;4989104;28;20141;-65
2023/11/13 08:07:53;;;;;;;8.70;3.97;;;;;;;;;;4980753;28;20053;-65
2023/11/13 08:10:20;;;;;;;7.25;3.45;;;;;;;;;;4987270;28;20149;-65
2023/11/13 08:12:49;;;;;;;7.20;3.10;;;;;;;;;;4981294;28;20077;-64
2023/11/13 08:15:16;;;;;;;7.13;3.33;;;;;;;;;;4987441;28;20058;-63
2023/11/13 08:17:45;;;;;;;7.15;3.38;;;;;;;;;;4978966;28;20166;-63
2023/11/13 08:20:14;;;;;;;6.47;2.88;;;;;;;;;;4984745;28;20054;-65
2023/11/13 08:22:42;;;;;;;7.45;3.10;;;;;;;;;;4974282;28;20153;-65
2023/11/13 08:25:12;;;;;;;7.90;3.70;;;;;;;;;;4982883;28;20081;-62
2023/11/13 08:27:40;;;;;;;7.72;3.40;;;;;;;;;;4981865;28;20058;-66
2023/11/13 08:30:08;;;;;;;7.38;2.95;;;;;;;;;;4986338;28;20054;-63
2023/11/13 08:32:35;;;;;;;9.15;3.28;;;;;;;;;;4984834;28;20066;-64
2023/11/13 08:35:04;;;;;;;11.57;3.78;;;;;;;;;;4983080;28;20062;-64
2023/11/13 08:37:32;;;;;;;7.53;3.45;;;;;;;;;;4980462;28;20070;-65
2023/11/13 08:40:01;;;;;;;10.45;3.75;;;;;;;;;;4982434;28;20050;-64
2023/11/13 08:42:29;;;;;;;6.63;3.23;;;;;;;;;;4982798;28;20085;-65
2023/11/13 08:44:58;;;;;;;8.80;3.83;;;;;;;;;;4975525;28;20085;-64
2023/11/13 08:47:25;;;;;;;6.85;3.08;;;;;;;;;;4987323;28;20088;-64
2023/11/13 08:49:52;;;;;;;8.85;3.80;;;;;;;;;;4983934;28;20104;-64
2023/11/13 08:52:20;;;;;;;8.13;3.75;;;;;;;;;;4964745;28;20046;-64
2023/11/13 08:54:46;;;;;;;9.70;3.67;;;;;;;;;;4996170;28;20069;-64
2023/11/13 08:57:13;;;;;;;9.18;3.95;;;;;;;;;;5018201;28;20294;-64
2023/11/13 08:59:41;;;;;;;10.73;3.75;;;;;;;;;;5013315;28;20067;-65
2023/11/13 09:02:33;;;;;;;6.50;3.38;;;;;;;;;;4965662;28;20098;-64
2023/11/13 09:05:13;;;;;;;7.60;2.78;;;;;;;;;;4990762;28;20051;-64
2023/11/13 09:07:39;;;;;;;9.48;3.58;;;;;;;;;;4978120;28;20081;-63
2023/11/13 09:10:11;;;;;;;12.20;3.63;;;;;;;;;;5018385;28;20047;-64
2023/11/13 09:12:55;;;;;;;8.75;3.10;;;;;;;;;;4957522;28;20160;-65
2023/11/13 09:15:25;;;;;;;9.90;3.28;;;;;;;;;;4967976;28;20054;-66
2023/11/13 09:17:54;;;;;;;6.18;3.00;;;;;;;;;;4959719;28;20056;-65
2023/11/13 09:20:25;;;;;;;8.02;2.83;;;;;;;;;;4997540;28;20054;-64
2023/11/13 09:22:53;;;;;;;10.35;3.00;;;;;;;;;;4945356;28;20061;-65
2023/11/13 09:25:22;;;;;;;9.80;2.40;;;;;;;;;;4983430;28;20046;-66
2023/11/13 09:27:50;;;;;;;2.70;1.40;;;;;;;;;;4962794;28;20059;-67
2023/11/13 09:30:27;;;;;;;6.53;2.30;;;;;;;;;;4964829;28;20082;-66
2023/11/13 09:32:55;;;;;;;7.50;2.30;;;;;;;;;;4967065;28;20275;-67
2023/11/13 09:35:22;;;;;;;9.75;2.30;;;;;;;;;;4966225;28;20061;-67
2023/11/13 09:37:53;;;;;;;5.30;1.97;;;;;;;;;;4993805;28;20047;-66
2023/11/13 09:40:22;;;;;;;8.88;1.80;;;;;;;;;;4998637;28;20079;-66
2023/11/13 09:42:54;;;;;;;5.10;1.83;;;;;;;;;;4845233;28;20056;-66
2023/11/13 09:45:41;;;;;;;3.85;1.73;;;;;;;;;;4948667;28;20154;-66
2023/11/13 09:48:08;;;;;;;2.83;1.20;;;;;;;;;;4963599;28;20134;-65
2023/11/13 09:50:41;;;;;;;4.47;1.85;;;;;;;;;;4966894;28;20054;-65
2023/11/13 09:53:09;;;;;;;6.88;1.85;;;;;;;;;;4960586;28;20050;-65
2023/11/13 09:55:41;;;;;;;7.38;1.65;;;;;;;;;;5013568;28;20051;-68
2023/11/13 09:58:16;;;;;;;4.07;1.58;;;;;;;;;;4986331;28;20054;-65
2023/11/13 10:00:52;;;;;;;5.35;1.83;;;;;;;;;;5015874;28;20050;-63
2023/11/13 10:03:19;;;;;;;3.75;1.35;;;;;;;;;;4974556;28;20054;-64
2023/11/13 10:05:46;;;;;;;2.97;1.30;;;;;;;;;;4941899;28;20138;-64
2023/11/13 10:08:15;;;;;;;5.10;1.48;;;;;;;;;;4947436;28;20058;-64
2023/11/13 10:10:45;;;;;;;3.28;1.20;;;;;;;;;;4946572;28;20158;-64
2023/11/13 10:13:21;;;;;;;5.13;1.40;;;;;;;;;;4929629;28;20225;-63
2023/11/13 10:15:48;;;;;;;5.00;1.13;;;;;;;;;;4943224;28;20055;-64
2023/11/13 10:18:27;;;;;;;4.95;1.25;;;;;;;;;;4963403;28;20093;-64
2023/11/13 10:20:58;;;;;;;6.70;1.55;;;;;;;;;;4962044;28;20081;-63
2023/11/13 10:23:37;;;;;;;6.50;1.70;;;;;;;;;;4928637;28;20058;-64
2023/11/13 10:26:14;;;;;;;4.55;1.30;;;;;;;;;;4983804;28;20073;-66
2023/11/13 10:28:42;;;;;;;2.30;0.82;;;;;;;;;;4984848;28;20070;-65
2023/11/13 10:31:12;;;;;;;2.95;1.20;;;;;;;;;;4983943;28;20189;-65
2023/11/13 10:33:42;;;;;;;3.72;1.20;;;;;;;;;;4977301;28;20054;-65
2023/11/13 10:36:17;;;;;;;5.53;1.17;;;;;;;;;;4981350;28;20057;-67
2023/11/13 10:38:47;;;;;;;2.95;1.08;;;;;;;;;;4983027;28;20050;-66
2023/11/13 10:41:23;;;;;;;2.22;0.80;;;;;;;;;;4983372;28;20054;-64
2023/11/13 10:43:52;;;;;;;4.15;1.30;;;;;;;;;;4959012;28;20085;-66
2023/11/13 10:46:29;;;;;;;2.53;0.98;;;;;;;;;;4984802;28;20061;-67
2023/11/13 10:49:00;;;;;;;3.63;1.45;;;;;;;;;;4984669;28;20062;-66
2023/11/13 10:51:28;;;;;;;;;;;;;;;;;;5005407;28;20216;-65
2023/11/13 10:53:57;;;;;;;1.90;0.90;;;;;;;;;;4966943;28;19930;-65
2023/11/13 10:56:25;;;;;;;1.42;0.82;;;;;;;;;;5015164;28;20062;-66
2023/11/13 11:01:41;;;;;;;2.13;0.80;;;;;;;;;;4965647;28;20058;-66
2023/11/13 11:04:19;;;;;;;1.30;0.80;;;;;;;;;;4975241;28;20081;-66
2023/11/13 11:06:49;;;;;;;3.53;0.90;;;;;;;;;;4984280;28;20089;-66
2023/11/13 11:09:18;;;;;;;2.78;1.02;;;;;;;;;;4982644;28;20047;-67
2023/11/13 11:11:48;;;;;;;6.65;0.93;;;;;;;;;;4958569;28;20046;-66
2023/11/13 11:14:21;;;;;;;1.75;0.82;;;;;;;;;;4960196;28;20046;-67
2023/11/13 11:16:57;;;;;;;4.90;1.08;;;;;;;;;;4965578;28;20054;-66
2023/11/13 11:19:37;;;;;;;2.50;0.75;;;;;;;;;;4971970;28;20050;-65
2023/11/13 11:22:11;;;;;;;4.20;1.20;;;;;;;;;;4970855;28;20115;-66
2023/11/13 11:24:57;;;;;;;2.05;0.90;;;;;;;;;;4964092;28;20054;-67
2023/11/13 11:27:40;;;;;;;2.00;1.02;;;;;;;;;;4984658;28;20073;-65
2023/11/13 11:30:31;;;;;;;3.67;1.05;;;;;;;;;;4984204;28;20068;-65
2023/11/13 11:32:59;;;;;;;2.60;0.95;;;;;;;;;;4967784;28;20057;-66
2023/11/13 11:35:45;;;;;;;3.90;1.48;;;;;;;;;;4993122;28;20082;-68
2023/11/13 11:38:22;;;;;;;3.08;1.17;;;;;;;;;;5016021;28;20069;-65
2023/11/13 11:40:49;;;;;;;5.30;1.60;;;;;;;;;;4967201;28;20058;-66
2023/11/13 11:43:18;;;;;;;4.72;1.20;;;;;;;;;;4959437;28;20046;-65
2023/11/13 11:45:51;;;;;;;6.90;1.30;;;;;;;;;;4978761;28;20070;-66
2023/11/13 11:48:21;;;;;;;1.98;1.08;;;;;;;;;;4984095;28;20050;-66
2023/11/13 11:50:56;;;;;;;2.40;1.30;;;;;;;;;;5016397;28;20058;-66
2023/11/13 11:53:23;;;;;;;3.95;1.38;;;;;;;;;;4985554;28;20049;-66
2023/11/13 11:55:55;;;;;;;3.65;1.55;;;;;;;;;;4980749;28;20055;-64
2023/11/13 11:58:23;;;;;;;3.33;1.45;;;;;;;;;;4983916;28;20061;-64
2023/11/13 12:00:51;;;;;;;6.75;1.40;;;;;;;;;;4985001;28;20042;-64
2023/11/13 12:03:18;;;;;;;5.07;1.35;;;;;;;;;;4951677;28;20058;-64
2023/11/13 12:05:45;;;;;;;5.47;1.60;;;;;;;;;;4979786;28;20252;-64
2023/11/13 12:08:13;;;;;;;2.97;1.60;;;;;;;;;;4983295;28;20293;-63
2023/11/13 12:10:42;;;;;;;6.22;1.48;;;;;;;;;;4985347;28;20113;-64
2023/11/13 12:13:09;;;;;;;3.47;1.50;;;;;;;;;;4991634;28;20052;-64
2023/11/13 12:15:36;;;;;;;4.03;1.70;;;;;;;;;;4995058;28;20056;-66
2023/11/13 12:18:05;;;;;;;4.47;1.60;;;;;;;;;;4979212;28;20054;-65
2023/11/13 12:20:32;;;;;;;4.38;1.85;;;;;;;;;;4988170;28;20054;-63
2023/11/13 12:22:59;;;;;;;9.57;2.00;;;;;;;;;;4979698;28;20119;-64
2023/11/13 12:25:31;;;;;;;6.53;2.40;;;;;;;;;;5008021;28;20061;-64
2023/11/13 12:28:01;;;;;;;11.32;3.25;;;;;;;;;;4986286;28;20042;-64
2023/11/13 12:30:27;;;;;;;8.20;3.45;;;;;;;;;;4983529;28;20058;-64
2023/11/13 12:32:54;;;;;;;12.55;2.47;;;;;;;;;;4978032;28;20058;-65
2023/11/13 12:35:22;;;;;;;5.57;2.00;;;;;;;;;;4981590;28;20121;-66
2023/11/13 12:37:50;;;;;;;5.93;1.70;;;;;;;;;;4981461;28;20080;-66
2023/11/13 12:40:17;;;;;;;6.90;1.77;;;;;;;;;;5019786;28;20062;-65
2023/11/13 12:42:45;;;;;;;8.90;1.90;;;;;;;;;;4992512;28;20057;-64
2023/11/13 12:45:13;;;;;;;4.57;1.60;;;;;;;;;;4982794;28;20090;-66
2023/11/13 12:47:47;;;;;;;3.97;1.35;;;;;;;;;;4981173;28;20054;-66
2023/11/13 12:50:15;;;;;;;5.88;2.20;;;;;;;;;;4985018;28;20128;-66
2023/11/13 12:52:43;;;;;;;3.42;1.23;;;;;;;;;;4969891;28;20057;-66
2023/11/13 12:55:13;;;;;;;4.97;1.45;;;;;;;;;;4997846;28;20062;-66
2023/11/13 12:57:45;;;;;;;6.18;1.45;;;;;;;;;;4981127;28;20081;-65
2023/11/13 13:00:16;;;;;;;9.30;1.55;;;;;;;;;;4985142;28;20046;-65
2023/11/13 13:02:46;;;;;;;7.60;1.55;;;;;;;;;;4981356;28;20134;-65
2023/11/13 13:05:13;;;;;;;7.18;1.88;;;;;;;;;;4986574;28;20089;-64
2023/11/13 13:07:41;;;;;;;5.38;1.88;;;;;;;;;;4982625;28;20124;-65
2023/11/13 13:10:11;;;;;;;7.57;2.15;;;;;;;;;;4985487;28;20085;-66
2023/11/13 13:12:39;;;;;;;4.03;1.90;;;;;;;;;;4937269;28;20062;-65
2023/11/13 13:15:17;;;;;;;5.15;2.03;;;;;;;;;;4984164;28;20144;-66
2023/11/13 13:17:50;;;;;;;4.95;1.85;;;;;;;;;;4980623;28;20145;-65
2023/11/13 13:20:23;;;;;;;4.10;1.70;;;;;;;;;;4984980;28;20055;-65
2023/11/13 13:22:55;;;;;;;3.90;1.70;;;;;;;;;;4959381;28;20080;-65
2023/11/13 13:25:30;;;;;;;9.95;1.90;;;;;;;;;;5011991;28;20046;-64
2023/11/13 13:27:57;;;;;;;3.92;1.50;;;;;;;;;;5003237;28;20063;-65
2023/11/13 13:30:31;;;;;;;3.35;1.27;;;;;;;;;;5004462;28;20050;-66
2023/11/13 13:32:58;;;;;;;6.00;1.48;;;;;;;;;;4992480;28;20061;-65
2023/11/13 13:35:27;;;;;;;2.72;1.08;;;;;;;;;;4993775;28;20046;-65
2023/11/13 13:37:54;;;;;;;3.72;1.35;;;;;;;;;;4978872;28;20056;-66
2023/11/13 13:40:21;;;;;;;4.72;1.30;;;;;;;;;;4985312;28;20512;-64
2023/11/13 13:42:48;;;;;;;7.60;1.73;;;;;;;;;;4976433;28;20058;-65
2023/11/13 13:45:17;;;;;;;6.10;1.52;;;;;;;;;;4997725;28;20078;-64
2023/11/13 13:47:48;;;;;;;4.15;1.25;;;;;;;;;;4978222;28;20047;-65
2023/11/13 13:50:17;;;;;;;3.95;1.20;;;;;;;;;;4986532;28;20060;-65
2023/11/13 13:52:46;;;;;;;1.67;1.02;;;;;;;;;;4963297;28;20074;-65
2023/11/13 13:55:15;;;;;;;3.75;1.10;;;;;;;;;;4998978;28;20060;-65
2023/11/13 13:57:45;;;;;;;3.25;1.35;;;;;;;;;;4984152;28;20105;-66
2023/11/13 14:00:23;;;;;;;5.90;1.98;;;;;;;;;;4988474;28;20054;-66
2023/11/13 14:02:51;;;;;;;18.00;6.68;;;;;;;;;;4945551;28;20054;-65
2023/11/13 14:05:19;;;;;;;4.45;2.15;;;;;;;;;;4987677;28;20112;-65
2023/11/13 14:10:39;;;;;;;2.97;1.13;;;;;;;;;;4982169;28;20151;-68
2023/11/13 14:13:11;;;;;;;2.28;1.10;;;;;;;;;;4948484;28;20093;-64
2023/11/13 14:15:38;;;;;;;5.28;1.60;;;;;;;;;;4997411;28;20058;-66
2023/11/13 14:18:14;;;;;;;3.97;1.17;;;;;;;;;;4985434;28;20065;-66
2023/11/13 14:20:45;;;;;;;2.83;1.40;;;;;;;;;;4984947;28;20081;-67
2023/11/13 14:23:16;;;;;;;6.03;1.08;;;;;;;;;;4962469;28;20082;-67
2023/11/13 14:25:45;;;;;;;2.65;1.00;;;;;;;;;;4981149;28;20038;-67
2023/11/13 14:28:16;;;;;;;5.10;1.25;;;;;;;;;;4982255;28;20061;-65
2023/11/13 14:30:46;;;;;;;1.95;0.80;;;;;;;;;;4983190;28;20050;-66
2023/11/13 14:33:18;;;;;;;5.75;1.40;;;;;;;;;;4969276;28;20066;-66
2023/11/13 14:35:47;;;;;;;6.13;1.05;;;;;;;;;;4977195;28;20090;-66
2023/11/13 14:38:15;;;;;;;;;;;;;;;;;;4986700;28;20049;-66
2023/11/13 14:40:45;;;;;;;;;;;;;;;;;;4987747;28;19980;-66
2023/11/13 14:43:14;;;;;;;5.93;1.27;;;;;;;;;;4967451;28;20057;-65
2023/11/13 14:46:02;;;;;;;4.43;1.30;;;;;;;;;;4986319;28;20093;-67
2023/11/13 14:48:33;;;;;;;4.97;0.77;;;;;;;;;;4984227;28;20046;-67
2023/11/13 14:51:01;;;;;;;8.85;1.23;;;;;;;;;;4985580;28;20054;-67
2023/11/13 14:53:43;;;;;;;3.17;0.87;;;;;;;;;;4921109;28;20062;-66
2023/11/13 14:56:14;;;;;;;7.28;1.40;;;;;;;;;;4952805;28;20149;-65